Impacts METAR Board
IDs:

KPHX - Phoenix/Sky Harbor, AZ, US

Updated at: 1300 UTC 30 Mar 2020
Potential Impact None Slight Moderate High
Time 30/01Z 30/02Z 30/03Z 30/04Z 30/05Z 30/06Z 30/07Z 30/08Z 30/09Z 30/10Z 30/11Z 30/12Z 30/13Z
Temp74 72 71 70 67 65 62 61 59 61 59 56 54
Dewpt25 27 26 25 27 28 33 30 32 28 29 33 38
Altim29.88 29.88 29.90 29.91 29.93 29.94 29.95 29.96 29.97 29.98 30.01 30.01 30.05
VIS10 10 10 10 10 10 10 10 10 10 10 10 10
CIG-- -- -- -- -- -- -- -- -- -- -- -- --
CoverFEWFEWCLRCLRCLRCLRCLRCLRCLRCLRCLRCLRFEW
FltCatVFRVFRVFRVFRVFRVFRVFRVFRVFRVFRVFRVFRVFR
WX--------------------------
WDir240260290280270260240250250270280300
WSpd11 8 13 12 10 5 6 5 5 8 7 3 0
WGst-- -- -- -- -- -- -- -- -- -- -- -- --
Raw hourly METARs
KPHX 300051Z 24011KT 10SM FEW080 FEW250 23/M04 A2988 RMK AO2 SLP107 T02331039
KPHX 300151Z 26008KT 10SM FEW080 FEW250 22/M03 A2988 RMK AO2 SLP110 T02221028
KPHX 300251Z 29013KT 10SM CLR 22/M03 A2990 RMK AO2 SLP114 T02171033 53006
KPHX 300351Z 28012KT 10SM CLR 21/M04 A2991 RMK AO2 SLP118 T02111039
KPHX 300451Z 27010KT 10SM CLR 19/M03 A2993 RMK AO2 SLP123 T01941028
KPHX 300551Z 26005KT 10SM CLR 18/M02 A2994 RMK AO2 SLP128 T01831022 10244 20183 51015
KPHX 300651Z 24006KT 10SM CLR 17/01 A2995 RMK AO2 SLP131 T01670006 402500117
KPHX 300751Z 25005KT 10SM CLR 16/M01 A2996 RMK AO2 SLP135 T01611011
KPHX 300851Z 25005KT 10SM CLR 15/00 A2997 RMK AO2 SLP138 T01500000 51009
KPHX 300951Z 27008KT 10SM CLR 16/M02 A2998 RMK AO2 SLP140 T01611022
KPHX 301051Z 28007KT 10SM CLR 15/M02 A3001 RMK AO2 SLP150 T01501017
KPHX 301151Z 03003KT 10SM CLR 13/01 A3001 RMK AO2 SLP152 T01330006 10183 20133 51014
KPHX 301251Z 00000KT 10SM FEW180 12/03 A3005 RMK AO2 SLP165 T01220033



Page loaded:  13:42 UTC  |   06:42 AM Pacific  |   07:42 AM Mountain  |   08:42 AM Central  |   09:42 AM Eastern

 

ADVISORIES

FORECASTS

FORECASTS

OBSERVATIONS

USER TOOLS

ABOUT US